sensor_id;sensor_type;location;lat;lon;timestamp;pressure;altitude;pressure_sealevel;temperature;humidity
21863;BME280;11096;51.338;12.524;2022-08-19T00:01:52;99546.47;;;19.30;100.00
21863;BME280;11096;51.338;12.524;2022-08-19T00:04:25;99545.97;;;19.27;100.00
21863;BME280;11096;51.338;12.524;2022-08-19T00:06:51;99531.13;;;19.34;100.00
21863;BME280;11096;51.338;12.524;2022-08-19T00:09:18;99515.03;;;19.29;100.00
21863;BME280;11096;51.338;12.524;2022-08-19T00:11:45;99501.19;;;19.27;100.00
21863;BME280;11096;51.338;12.524;2022-08-19T00:14:13;99502.84;;;19.28;100.00
21863;BME280;11096;51.338;12.524;2022-08-19T00:16:41;99525.03;;;19.34;100.00
21863;BME280;11096;51.338;12.524;2022-08-19T00:19:09;99526.03;;;19.33;100.00
21863;BME280;11096;51.338;12.524;2022-08-19T00:21:34;99523.94;;;19.28;100.00
21863;BME280;11096;51.338;12.524;2022-08-19T00:24:06;99513.75;;;19.25;100.00
21863;BME280;11096;51.338;12.524;2022-08-19T00:26:32;99503.91;;;19.19;100.00
21863;BME280;11096;51.338;12.524;2022-08-19T00:28:57;99492.41;;;19.20;100.00
21863;BME280;11096;51.338;12.524;2022-08-19T00:31:22;99486.81;;;19.15;100.00
21863;BME280;11096;51.338;12.524;2022-08-19T00:33:48;99480.28;;;19.11;100.00
21863;BME280;11096;51.338;12.524;2022-08-19T00:36:16;99480.16;;;19.04;100.00
21863;BME280;11096;51.338;12.524;2022-08-19T00:38:42;99489.16;;;19.09;100.00
21863;BME280;11096;51.338;12.524;2022-08-19T00:41:10;99502.84;;;19.05;100.00
21863;BME280;11096;51.338;12.524;2022-08-19T00:43:37;99503.19;;;19.10;100.00
21863;BME280;11096;51.338;12.524;2022-08-19T00:46:04;99517.84;;;19.04;100.00
21863;BME280;11096;51.338;12.524;2022-08-19T00:48:31;99525.59;;;19.06;100.00
21863;BME280;11096;51.338;12.524;2022-08-19T00:50:58;99523.47;;;19.01;100.00
21863;BME280;11096;51.338;12.524;2022-08-19T00:53:26;99519.94;;;19.09;100.00
21863;BME280;11096;51.338;12.524;2022-08-19T00:55:55;99501.81;;;19.14;100.00
21863;BME280;11096;51.338;12.524;2022-08-19T00:58:24;99492.81;;;19.08;100.00
21863;BME280;11096;51.338;12.524;2022-08-19T01:00:50;99484.75;;;19.10;100.00
21863;BME280;11096;51.338;12.524;2022-08-19T01:03:18;99477.38;;;19.05;100.00
21863;BME280;11096;51.338;12.524;2022-08-19T01:05:44;99485.91;;;19.07;100.00
21863;BME280;11096;51.338;12.524;2022-08-19T01:08:11;99495.97;;;19.04;100.00
21863;BME280;11096;51.338;12.524;2022-08-19T01:10:40;99503.69;;;19.05;100.00
21863;BME280;11096;51.338;12.524;2022-08-19T01:13:07;99491.63;;;19.11;100.00
21863;BME280;11096;51.338;12.524;2022-08-19T01:15:48;99496.53;;;19.14;100.00
21863;BME280;11096;51.338;12.524;2022-08-19T01:18:16;99499.53;;;19.11;100.00
21863;BME280;11096;51.338;12.524;2022-08-19T01:20:43;99487.19;;;19.12;100.00
21863;BME280;11096;51.338;12.524;2022-08-19T01:23:09;99484.75;;;19.10;100.00
21863;BME280;11096;51.338;12.524;2022-08-19T01:25:39;99464.47;;;19.11;100.00
21863;BME280;11096;51.338;12.524;2022-08-19T01:28:06;99467.28;;;19.09;100.00
21863;BME280;11096;51.338;12.524;2022-08-19T01:30:34;99458.28;;;19.03;100.00
21863;BME280;11096;51.338;12.524;2022-08-19T01:33:00;99460.56;;;19.06;100.00
21863;BME280;11096;51.338;12.524;2022-08-19T01:35:28;99466.00;;;19.05;100.00
21863;BME280;11096;51.338;12.524;2022-08-19T01:38:02;99474.09;;;19.03;100.00
21863;BME280;11096;51.338;12.524;2022-08-19T01:40:32;99477.13;;;18.92;100.00
21863;BME280;11096;51.338;12.524;2022-08-19T01:42:59;99469.72;;;18.96;100.00
21863;BME280;11096;51.338;12.524;2022-08-19T01:45:26;99458.28;;;19.03;100.00
21863;BME280;11096;51.338;12.524;2022-08-19T01:47:53;99453.03;;;19.03;100.00
21863;BME280;11096;51.338;12.524;2022-08-19T01:50:19;99437.22;;;19.03;100.00
21863;BME280;11096;51.338;12.524;2022-08-19T01:52:46;99412.22;;;18.99;100.00
21863;BME280;11096;51.338;12.524;2022-08-19T01:55:15;99385.97;;;18.91;100.00
21863;BME280;11096;51.338;12.524;2022-08-19T01:57:44;99383.34;;;18.91;100.00
21863;BME280;11096;51.338;12.524;2022-08-19T02:00:13;99393.97;;;18.83;100.00
21863;BME280;11096;51.338;12.524;2022-08-19T02:02:41;99407.75;;;18.85;100.00
21863;BME280;11096;51.338;12.524;2022-08-19T02:05:06;99406.94;;;18.84;100.00
21863;BME280;11096;51.338;12.524;2022-08-19T02:07:32;99404.56;;;18.90;100.00
21863;BME280;11096;51.338;12.524;2022-08-19T02:09:58;99410.66;;;18.90;100.00
21863;BME280;11096;51.338;12.524;2022-08-19T02:12:23;99418.94;;;19.02;100.00
21863;BME280;11096;51.338;12.524;2022-08-19T02:14:49;99430.84;;;18.98;100.00
21863;BME280;11096;51.338;12.524;2022-08-19T02:17:14;99435.94;;;18.99;100.00
21863;BME280;11096;51.338;12.524;2022-08-19T02:19:39;99440.38;;;18.99;100.00
21863;BME280;11096;51.338;12.524;2022-08-19T02:22:06;99447.09;;;19.01;100.00
21863;BME280;11096;51.338;12.524;2022-08-19T02:24:32;99451.56;;;19.01;100.00
21863;BME280;11096;51.338;12.524;2022-08-19T02:26:57;99445.78;;;19.05;100.00
21863;BME280;11096;51.338;12.524;2022-08-19T02:29:24;99444.47;;;19.01;100.00
21863;BME280;11096;51.338;12.524;2022-08-19T02:31:49;99451.03;;;19.05;100.00
21863;BME280;11096;51.338;12.524;2022-08-19T02:34:15;99443.47;;;19.02;100.00
21863;BME280;11096;51.338;12.524;2022-08-19T02:36:41;99445.81;;;18.97;100.00
21863;BME280;11096;51.338;12.524;2022-08-19T02:39:07;99440.75;;;18.96;100.00
21863;BME280;11096;51.338;12.524;2022-08-19T02:41:33;99438.41;;;19.01;100.00
21863;BME280;11096;51.338;12.524;2022-08-19T02:44:00;99429.31;;;19.03;100.00
21863;BME280;11096;51.338;12.524;2022-08-19T02:46:31;99414.41;;;18.96;100.00
21863;BME280;11096;51.338;12.524;2022-08-19T02:49:05;99410.13;;;18.95;100.00
21863;BME280;11096;51.338;12.524;2022-08-19T02:51:34;99404.06;;;18.94;100.00
21863;BME280;11096;51.338;12.524;2022-08-19T02:54:00;99409.97;;;18.96;100.00
21863;BME280;11096;51.338;12.524;2022-08-19T02:56:25;99403.06;;;18.95;100.00
21863;BME280;11096;51.338;12.524;2022-08-19T02:58:53;99415.34;;;19.03;100.00
21863;BME280;11096;51.338;12.524;2022-08-19T03:01:29;99414.06;;;18.99;100.00
21863;BME280;11096;51.338;12.524;2022-08-19T03:03:59;99424.75;;;18.97;100.00
21863;BME280;11096;51.338;12.524;2022-08-19T03:06:25;99440.38;;;18.99;100.00
21863;BME280;11096;51.338;12.524;2022-08-19T03:08:52;99451.38;;;19.02;100.00
21863;BME280;11096;51.338;12.524;2022-08-19T03:11:22;99464.88;;;18.99;100.00
21863;BME280;11096;51.338;12.524;2022-08-19T03:13:48;99479.72;;;19.00;100.00
21863;BME280;11096;51.338;12.524;2022-08-19T03:16:19;99489.13;;;18.95;100.00
21863;BME280;11096;51.338;12.524;2022-08-19T03:18:45;99496.56;;;18.91;100.00
21863;BME280;11096;51.338;12.524;2022-08-19T03:21:17;99503.00;;;18.88;100.00
21863;BME280;11096;51.338;12.524;2022-08-19T03:23:43;99506.09;;;18.92;100.00
21863;BME280;11096;51.338;12.524;2022-08-19T03:26:09;99499.47;;;18.96;100.00
21863;BME280;11096;51.338;12.524;2022-08-19T03:28:34;99492.09;;;18.92;100.00
21863;BME280;11096;51.338;12.524;2022-08-19T03:31:05;99483.22;;;18.93;100.00
21863;BME280;11096;51.338;12.524;2022-08-19T03:33:32;99477.97;;;18.93;100.00
21863;BME280;11096;51.338;12.524;2022-08-19T03:36:06;99492.47;;;18.88;100.00
21863;BME280;11096;51.338;12.524;2022-08-19T03:38:37;99510.78;;;18.74;100.00
21863;BME280;11096;51.338;12.524;2022-08-19T03:41:06;99522.34;;;18.64;100.00
21863;BME280;11096;51.338;12.524;2022-08-19T03:43:33;99539.44;;;18.69;100.00
21863;BME280;11096;51.338;12.524;2022-08-19T03:46:04;99546.19;;;18.71;100.00
21863;BME280;11096;51.338;12.524;2022-08-19T03:48:31;99547.25;;;18.85;100.00
21863;BME280;11096;51.338;12.524;2022-08-19T03:50:57;99544.63;;;18.85;100.00
21863;BME280;11096;51.338;12.524;2022-08-19T03:53:24;99537.03;;;18.90;100.00
21863;BME280;11096;51.338;12.524;2022-08-19T03:55:51;99525.50;;;18.91;100.00
21863;BME280;11096;51.338;12.524;2022-08-19T03:58:16;99523.34;;;18.95;100.00
21863;BME280;11096;51.338;12.524;2022-08-19T04:00:42;99529.75;;;19.00;100.00
21863;BME280;11096;51.338;12.524;2022-08-19T04:03:08;99530.72;;;18.99;100.00
21863;BME280;11096;51.338;12.524;2022-08-19T04:05:33;99526.91;;;19.02;100.00
21863;BME280;11096;51.338;12.524;2022-08-19T04:07:59;99540.09;;;19.02;100.00
21863;BME280;11096;51.338;12.524;2022-08-19T04:10:26;99535.81;;;19.01;100.00
21863;BME280;11096;51.338;12.524;2022-08-19T04:12:52;99541.47;;;18.90;100.00
21863;BME280;11096;51.338;12.524;2022-08-19T04:15:17;99533.41;;;18.91;100.00
21863;BME280;11096;51.338;12.524;2022-08-19T04:17:44;99536.69;;;18.93;100.00
21863;BME280;11096;51.338;12.524;2022-08-19T04:20:09;99535.53;;;18.96;100.00
21863;BME280;11096;51.338;12.524;2022-08-19T04:22:35;99542.84;;;18.85;100.00
21863;BME280;11096;51.338;12.524;2022-08-19T04:25:00;99535.56;;;18.87;100.00
21863;BME280;11096;51.338;12.524;2022-08-19T04:27:25;99539.06;;;18.80;100.00
21863;BME280;11096;51.338;12.524;2022-08-19T04:29:51;99533.47;;;18.83;100.00
21863;BME280;11096;51.338;12.524;2022-08-19T04:32:17;99530.84;;;18.83;100.00
21863;BME280;11096;51.338;12.524;2022-08-19T04:34:42;99516.84;;;18.82;100.00
21863;BME280;11096;51.338;12.524;2022-08-19T04:37:08;99505.34;;;18.83;100.00
21863;BME280;11096;51.338;12.524;2022-08-19T04:39:37;99496.13;;;18.79;100.00
21863;BME280;11096;51.338;12.524;2022-08-19T04:42:21;99495.97;;;18.81;100.00
21863;BME280;11096;51.338;12.524;2022-08-19T04:45:12;99504.53;;;18.83;100.00
21863;BME280;11096;51.338;12.524;2022-08-19T04:47:40;99498.44;;;18.74;100.00
21863;BME280;11096;51.338;12.524;2022-08-19T04:50:06;99495.81;;;18.74;100.00
21863;BME280;11096;51.338;12.524;2022-08-19T04:52:33;99499.13;;;18.76;100.00
21863;BME280;11096;51.338;12.524;2022-08-19T04:54:58;99510.13;;;18.72;100.00
21863;BME280;11096;51.338;12.524;2022-08-19T04:57:25;99521.66;;;18.79;100.00
21863;BME280;11096;51.338;12.524;2022-08-19T04:59:55;99528.38;;;18.81;100.00
21863;BME280;11096;51.338;12.524;2022-08-19T05:02:21;99524.28;;;18.79;100.00
21863;BME280;11096;51.338;12.524;2022-08-19T05:04:55;99523.63;;;18.77;100.00
21863;BME280;11096;51.338;12.524;2022-08-19T05:07:21;99518.66;;;18.82;100.00
21863;BME280;11096;51.338;12.524;2022-08-19T05:09:46;99530.50;;;18.86;100.00
21863;BME280;11096;51.338;12.524;2022-08-19T05:12:11;99525.59;;;18.83;100.00
21863;BME280;11096;51.338;12.524;2022-08-19T05:14:37;99526.56;;;18.82;100.00
21863;BME280;11096;51.338;12.524;2022-08-19T05:17:02;99526.84;;;18.87;100.00
21863;BME280;11096;51.338;12.524;2022-08-19T05:19:27;99527.78;;;18.94;100.00
21863;BME280;11096;51.338;12.524;2022-08-19T05:22:11;99537.00;;;18.98;100.00
21863;BME280;11096;51.338;12.524;2022-08-19T05:24:55;99532.38;;;19.00;100.00
21863;BME280;11096;51.338;12.524;2022-08-19T05:27:21;99525.94;;;19.03;100.00
21863;BME280;11096;51.338;12.524;2022-08-19T05:29:46;99528.28;;;18.98;100.00
21863;BME280;11096;51.338;12.524;2022-08-19T05:32:11;99526.75;;;19.03;100.00
21863;BME280;11096;51.338;12.524;2022-08-19T05:34:37;99527.03;;;19.08;100.00
21863;BME280;11096;51.338;12.524;2022-08-19T05:37:04;99535.59;;;19.11;100.00
21863;BME280;11096;51.338;12.524;2022-08-19T05:39:32;99552.97;;;19.20;100.00
21863;BME280;11096;51.338;12.524;2022-08-19T05:42:01;99550.97;;;19.22;100.00
21863;BME280;11096;51.338;12.524;2022-08-19T05:44:30;99559.81;;;19.29;100.00
21863;BME280;11096;51.338;12.524;2022-08-19T05:46:57;99566.72;;;19.30;100.00
21863;BME280;11096;51.338;12.524;2022-08-19T05:49:23;99573.97;;;19.28;100.00
21863;BME280;11096;51.338;12.524;2022-08-19T05:51:51;99574.16;;;19.26;100.00
21863;BME280;11096;51.338;12.524;2022-08-19T05:54:17;99575.09;;;19.34;100.00
21863;BME280;11096;51.338;12.524;2022-08-19T05:56:43;99579.91;;;19.30;100.00
21863;BME280;11096;51.338;12.524;2022-08-19T05:59:10;99583.63;;;19.36;100.00
21863;BME280;11096;51.338;12.524;2022-08-19T06:01:42;99573.38;;;19.41;100.00
21863;BME280;11096;51.338;12.524;2022-08-19T06:04:08;99573.22;;;19.42;100.00
21863;BME280;11096;51.338;12.524;2022-08-19T06:06:34;99568.28;;;19.39;100.00
21863;BME280;11096;51.338;12.524;2022-08-19T06:09:05;99578.28;;;19.44;100.00
21863;BME280;11096;51.338;12.524;2022-08-19T06:11:42;99577.13;;;19.46;100.00
21863;BME280;11096;51.338;12.524;2022-08-19T06:14:12;99582.34;;;19.55;100.00
21863;BME280;11096;51.338;12.524;2022-08-19T06:16:40;99581.06;;;19.50;100.00
21863;BME280;11096;51.338;12.524;2022-08-19T06:19:08;99579.44;;;19.49;100.00
21863;BME280;11096;51.338;12.524;2022-08-19T06:21:36;99580.41;;;19.48;100.00
21863;BME280;11096;51.338;12.524;2022-08-19T06:24:06;99585.69;;;19.48;100.00
21863;BME280;11096;51.338;12.524;2022-08-19T06:26:34;99582.06;;;19.49;100.00
21863;BME280;11096;51.338;12.524;2022-08-19T06:28:59;99582.69;;;19.51;100.00
21863;BME280;11096;51.338;12.524;2022-08-19T06:31:27;99595.16;;;19.58;100.00
21863;BME280;11096;51.338;12.524;2022-08-19T06:33:52;99609.03;;;19.51;100.00
21863;BME280;11096;51.338;12.524;2022-08-19T06:36:27;99604.38;;;19.62;100.00
21863;BME280;11096;51.338;12.524;2022-08-19T06:38:55;99607.53;;;19.57;100.00
21863;BME280;11096;51.338;12.524;2022-08-19T06:41:22;99624.56;;;19.46;100.00
21863;BME280;11096;51.338;12.524;2022-08-19T06:43:47;99636.56;;;19.49;100.00
21863;BME280;11096;51.338;12.524;2022-08-19T06:46:15;99636.78;;;19.39;100.00
21863;BME280;11096;51.338;12.524;2022-08-19T06:48:41;99646.72;;;19.37;100.00
21863;BME280;11096;51.338;12.524;2022-08-19T06:51:07;99649.88;;;19.24;100.00
21863;BME280;11096;51.338;12.524;2022-08-19T06:53:33;99663.91;;;19.25;100.00
21863;BME280;11096;51.338;12.524;2022-08-19T06:55:58;99661.91;;;19.27;100.00
21863;BME280;11096;51.338;12.524;2022-08-19T06:58:29;99668.03;;;19.19;100.00
21863;BME280;11096;51.338;12.524;2022-08-19T07:00:58;99672.50;;;19.19;100.00
21863;BME280;11096;51.338;12.524;2022-08-19T07:03:28;99676.00;;;19.11;100.00
21863;BME280;11096;51.338;12.524;2022-08-19T07:05:54;99685.72;;;19.02;100.00
21863;BME280;11096;51.338;12.524;2022-08-19T07:08:19;99683.72;;;19.13;100.00
21863;BME280;11096;51.338;12.524;2022-08-19T07:10:45;99682.78;;;19.05;100.00
21863;BME280;11096;51.338;12.524;2022-08-19T07:13:11;99694.97;;;18.98;100.00
21863;BME280;11096;51.338;12.524;2022-08-19T07:15:37;99695.66;;;18.92;100.00
21863;BME280;11096;51.338;12.524;2022-08-19T07:18:03;99696.31;;;18.94;100.00
21863;BME280;11096;51.338;12.524;2022-08-19T07:20:28;99690.38;;;19.00;100.00
21863;BME280;11096;51.338;12.524;2022-08-19T07:22:53;99693.63;;;19.02;100.00
21863;BME280;11096;51.338;12.524;2022-08-19T07:25:19;99696.97;;;18.96;100.00
21863;BME280;11096;51.338;12.524;2022-08-19T07:27:48;99706.16;;;19.00;100.00
21863;BME280;11096;51.338;12.524;2022-08-19T07:30:14;99710.78;;;18.90;100.00
21863;BME280;11096;51.338;12.524;2022-08-19T07:32:40;99705.38;;;18.92;100.00
21863;BME280;11096;51.338;12.524;2022-08-19T07:35:06;99706.06;;;18.77;100.00
21863;BME280;11096;51.338;12.524;2022-08-19T07:37:32;99708.19;;;18.82;100.00
21863;BME280;11096;51.338;12.524;2022-08-19T07:40:00;99697.19;;;18.78;100.00
21863;BME280;11096;51.338;12.524;2022-08-19T07:42:25;99705.38;;;18.75;100.00
21863;BME280;11096;51.338;12.524;2022-08-19T07:44:51;99700.00;;;18.77;100.00
21863;BME280;11096;51.338;12.524;2022-08-19T07:47:17;99705.25;;;18.77;100.00
21863;BME280;11096;51.338;12.524;2022-08-19T07:49:43;99702.13;;;18.81;100.00
21863;BME280;11096;51.338;12.524;2022-08-19T07:52:09;99714.28;;;18.74;100.00
21863;BME280;11096;51.338;12.524;2022-08-19T07:54:36;99722.16;;;18.74;100.00
21863;BME280;11096;51.338;12.524;2022-08-19T07:57:03;99723.34;;;18.72;100.00
21863;BME280;11096;51.338;12.524;2022-08-19T07:59:29;99717.09;;;18.81;100.00
21863;BME280;11096;51.338;12.524;2022-08-19T08:01:56;99719.72;;;18.81;100.00
21863;BME280;11096;51.338;12.524;2022-08-19T08:04:21;99708.53;;;18.79;100.00
21863;BME280;11096;51.338;12.524;2022-08-19T08:07:06;99713.81;;;18.71;100.00
21863;BME280;11096;51.338;12.524;2022-08-19T08:09:52;99703.59;;;18.84;100.00
21863;BME280;11096;51.338;12.524;2022-08-19T08:12:23;99716.72;;;18.92;100.00
21863;BME280;11096;51.338;12.524;2022-08-19T08:14:55;99711.44;;;18.92;100.00
21863;BME280;11096;51.338;12.524;2022-08-19T08:17:23;99721.00;;;18.93;100.00
21863;BME280;11096;51.338;12.524;2022-08-19T08:19:50;99725.31;;;18.86;100.00
21863;BME280;11096;51.338;12.524;2022-08-19T08:22:18;99729.88;;;18.92;100.00
21863;BME280;11096;51.338;12.524;2022-08-19T08:25:05;99736.81;;;18.93;100.00
21863;BME280;11096;51.338;12.524;2022-08-19T08:27:31;99738.16;;;18.81;100.00
21863;BME280;11096;51.338;12.524;2022-08-19T08:29:57;99740.75;;;18.89;100.00
21863;BME280;11096;51.338;12.524;2022-08-19T08:32:23;99736.00;;;18.93;100.00
21863;BME280;11096;51.338;12.524;2022-08-19T08:34:48;99736.44;;;18.96;100.00
21863;BME280;11096;51.338;12.524;2022-08-19T08:37:13;99732.81;;;18.97;100.00
21863;BME280;11096;51.338;12.524;2022-08-19T08:39:39;99739.69;;;19.06;100.00
21863;BME280;11096;51.338;12.524;2022-08-19T08:42:27;99736.41;;;19.04;100.00
21863;BME280;11096;51.338;12.524;2022-08-19T08:45:31;99735.75;;;19.11;100.00
21863;BME280;11096;51.338;12.524;2022-08-19T08:47:51;99744.00;;;19.07;100.00
21863;BME280;11096;51.338;12.524;2022-08-19T08:50:22;99746.28;;;19.11;100.00
21863;BME280;11096;51.338;12.524;2022-08-19T08:52:52;99757.53;;;18.96;100.00
21863;BME280;11096;51.338;12.524;2022-08-19T08:55:24;99757.53;;;18.96;100.00
21863;BME280;11096;51.338;12.524;2022-08-19T08:58:01;99764.41;;;19.05;100.00
21863;BME280;11096;51.338;12.524;2022-08-19T09:00:30;99757.66;;;19.03;100.00
21863;BME280;11096;51.338;12.524;2022-08-19T09:02:57;99757.47;;;19.04;100.00
21863;BME280;11096;51.338;12.524;2022-08-19T09:05:27;99760.81;;;18.90;100.00
21863;BME280;11096;51.338;12.524;2022-08-19T09:08:04;99759.84;;;18.91;100.00
21863;BME280;11096;51.338;12.524;2022-08-19T09:10:39;99759.84;;;18.91;100.00
21863;BME280;11096;51.338;12.524;2022-08-19T09:15:45;99753.25;;;18.87;100.00
21863;BME280;11096;51.338;12.524;2022-08-19T09:18:13;99749.31;;;18.91;100.00
21863;BME280;11096;51.338;12.524;2022-08-19T09:20:38;99744.81;;;19.00;100.00
21863;BME280;11096;51.338;12.524;2022-08-19T09:23:04;99743.34;;;18.97;100.00
21863;BME280;11096;51.338;12.524;2022-08-19T09:25:29;99743.16;;;19.07;100.00
21863;BME280;11096;51.338;12.524;2022-08-19T09:27:57;99749.72;;;19.11;100.00
21863;BME280;11096;51.338;12.524;2022-08-19T09:30:30;99759.50;;;18.94;100.00
21863;BME280;11096;51.338;12.524;2022-08-19T09:32:56;99772.69;;;18.86;100.00
21863;BME280;11096;51.338;12.524;2022-08-19T09:35:26;99773.97;;;18.90;100.00
21863;BME280;11096;51.338;12.524;2022-08-19T09:37:53;99762.00;;;18.79;100.00
21863;BME280;11096;51.338;12.524;2022-08-19T09:40:19;99764.47;;;18.81;100.00
21863;BME280;11096;51.338;12.524;2022-08-19T09:42:45;99757.25;;;18.83;100.00
21863;BME280;11096;51.338;12.524;2022-08-19T09:45:15;99756.25;;;18.84;100.00
21863;BME280;11096;51.338;12.524;2022-08-19T09:47:42;99754.53;;;18.99;100.00
21863;BME280;11096;51.338;12.524;2022-08-19T09:50:10;99747.91;;;19.12;100.00
21863;BME280;11096;51.338;12.524;2022-08-19T09:52:36;99765.78;;;19.24;100.00
21863;BME280;11096;51.338;12.524;2022-08-19T09:55:09;99765.38;;;19.13;100.00
21863;BME280;11096;51.338;12.524;2022-08-19T09:57:35;99759.75;;;19.16;100.00
21863;BME280;11096;51.338;12.524;2022-08-19T10:00:01;99740.16;;;19.18;100.00
21863;BME280;11096;51.338;12.524;2022-08-19T10:02:26;99726.72;;;19.36;100.00
21863;BME280;11096;51.338;12.524;2022-08-19T10:04:51;99727.59;;;19.60;100.00
21863;BME280;11096;51.338;12.524;2022-08-19T10:07:36;99717.03;;;19.68;100.00
21863;BME280;11096;51.338;12.524;2022-08-19T10:10:04;99706.06;;;19.79;100.00
21863;BME280;11096;51.338;12.524;2022-08-19T10:12:31;99696.75;;;19.91;100.00
21863;BME280;11096;51.338;12.524;2022-08-19T10:14:57;99702.78;;;20.00;100.00
21863;BME280;11096;51.338;12.524;2022-08-19T10:17:23;99712.25;;;20.09;100.00
21863;BME280;11096;51.338;12.524;2022-08-19T10:19:50;99721.38;;;20.22;100.00
21863;BME280;11096;51.338;12.524;2022-08-19T10:22:17;99729.94;;;20.24;100.00
21863;BME280;11096;51.338;12.524;2022-08-19T10:24:43;99732.19;;;20.12;100.00
21863;BME280;11096;51.338;12.524;2022-08-19T10:27:08;99729.25;;;20.07;100.00
21863;BME280;11096;51.338;12.524;2022-08-19T10:29:35;99725.31;;;20.03;100.00
21863;BME280;11096;51.338;12.524;2022-08-19T10:32:01;99741.50;;;20.00;100.00
21863;BME280;11096;51.338;12.524;2022-08-19T10:34:28;99737.81;;;20.09;100.00
21863;BME280;11096;51.338;12.524;2022-08-19T10:36:53;99738.88;;;20.00;100.00
21863;BME280;11096;51.338;12.524;2022-08-19T10:39:18;99735.53;;;19.83;100.00
21863;BME280;11096;51.338;12.524;2022-08-19T10:41:44;99742.56;;;19.90;100.00
21863;BME280;11096;51.338;12.524;2022-08-19T10:44:11;99741.22;;;19.94;100.00
21863;BME280;11096;51.338;12.524;2022-08-19T10:46:40;99736.25;;;20.00;100.00
21863;BME280;11096;51.338;12.524;2022-08-19T10:49:07;99746.06;;;20.06;100.00
21863;BME280;11096;51.338;12.524;2022-08-19T10:51:33;99755.16;;;20.03;100.00
21863;BME280;11096;51.338;12.524;2022-08-19T10:54:17;99743.09;;;20.09;100.00
21863;BME280;11096;51.338;12.524;2022-08-19T10:56:44;99753.22;;;20.20;100.00
21863;BME280;11096;51.338;12.524;2022-08-19T10:59:25;99746.19;;;20.12;100.00
21863;BME280;11096;51.338;12.524;2022-08-19T11:01:53;99746.94;;;19.98;100.00
21863;BME280;11096;51.338;12.524;2022-08-19T11:04:19;99733.84;;;19.90;100.00
21863;BME280;11096;51.338;12.524;2022-08-19T11:06:47;99740.56;;;19.92;100.00
21863;BME280;11096;51.338;12.524;2022-08-19T11:09:23;99729.97;;;20.01;100.00
21863;BME280;11096;51.338;12.524;2022-08-19T11:11:50;99729.97;;;20.01;100.00
21863;BME280;11096;51.338;12.524;2022-08-19T11:14:17;99745.16;;;19.99;100.00
21863;BME280;11096;51.338;12.524;2022-08-19T11:16:46;99750.94;;;20.17;100.00
21863;BME280;11096;51.338;12.524;2022-08-19T11:19:12;99751.00;;;20.09;100.00
21863;BME280;11096;51.338;12.524;2022-08-19T11:21:41;99754.41;;;19.94;100.00
21863;BME280;11096;51.338;12.524;2022-08-19T11:24:10;99762.91;;;20.05;100.00
21863;BME280;11096;51.338;12.524;2022-08-19T11:26:37;99755.75;;;20.13;100.00
21863;BME280;11096;51.338;12.524;2022-08-19T11:29:04;99758.72;;;20.33;100.00
21863;BME280;11096;51.338;12.524;2022-08-19T11:31:33;99762.88;;;20.28;100.00
21863;BME280;11096;51.338;12.524;2022-08-19T11:34:00;99784.06;;;20.20;100.00
21863;BME280;11096;51.338;12.524;2022-08-19T11:36:27;99776.03;;;20.13;100.00
21863;BME280;11096;51.338;12.524;2022-08-19T11:38:53;99772.41;;;20.14;100.00
21863;BME280;11096;51.338;12.524;2022-08-19T11:41:20;99787.47;;;20.05;100.00
21863;BME280;11096;51.338;12.524;2022-08-19T11:43:48;99796.56;;;20.26;100.00
21863;BME280;11096;51.338;12.524;2022-08-19T11:46:15;99785.56;;;20.37;100.00
21863;BME280;11096;51.338;12.524;2022-08-19T11:48:41;99788.69;;;20.41;100.00
21863;BME280;11096;51.338;12.524;2022-08-19T11:51:13;99784.59;;;20.38;100.00
21863;BME280;11096;51.338;12.524;2022-08-19T11:53:41;99782.13;;;20.36;100.00
21863;BME280;11096;51.338;12.524;2022-08-19T11:56:08;99781.88;;;20.46;100.00
21863;BME280;11096;51.338;12.524;2022-08-19T11:58:35;99774.19;;;20.74;100.00
21863;BME280;11096;51.338;12.524;2022-08-19T12:01:00;99772.41;;;20.90;100.00
21863;BME280;11096;51.338;12.524;2022-08-19T12:03:26;99766.72;;;21.22;100.00
21863;BME280;11096;51.338;12.524;2022-08-19T12:05:52;99764.19;;;21.29;100.00
21863;BME280;11096;51.338;12.524;2022-08-19T12:08:18;99758.91;;;21.29;97.74
21863;BME280;11096;51.338;12.524;2022-08-19T12:10:44;99765.25;;;21.35;96.95
21863;BME280;11096;51.338;12.524;2022-08-19T12:13:11;99758.44;;;21.40;96.00
21863;BME280;11096;51.338;12.524;2022-08-19T12:15:39;99759.28;;;21.62;94.86
21863;BME280;11096;51.338;12.524;2022-08-19T12:18:08;99741.94;;;22.18;94.53
21863;BME280;11096;51.338;12.524;2022-08-19T12:20:36;99743.06;;;22.93;91.52
21863;BME280;11096;51.338;12.524;2022-08-19T12:23:02;99733.03;;;23.23;88.04
21863;BME280;11096;51.338;12.524;2022-08-19T12:25:28;99731.94;;;23.66;84.42
21863;BME280;11096;51.338;12.524;2022-08-19T12:27:53;99727.94;;;23.83;82.99
21863;BME280;11096;51.338;12.524;2022-08-19T12:30:20;99729.56;;;23.84;82.05
21863;BME280;11096;51.338;12.524;2022-08-19T12:32:45;99735.34;;;23.40;82.46
21863;BME280;11096;51.338;12.524;2022-08-19T12:35:10;99736.81;;;23.62;82.75
21863;BME280;11096;51.338;12.524;2022-08-19T12:37:37;99740.16;;;23.77;81.53
21863;BME280;11096;51.338;12.524;2022-08-19T12:40:03;99737.09;;;23.87;80.89
21863;BME280;11096;51.338;12.524;2022-08-19T12:42:29;99737.75;;;24.23;80.53
21863;BME280;11096;51.338;12.524;2022-08-19T12:44:55;99746.69;;;23.82;78.88
21863;BME280;11096;51.338;12.524;2022-08-19T12:47:21;99745.50;;;24.31;79.31